Aérodrome :
LOGIN :

S'inscrire | Disclaimer

   EN    FR    IT 

 










Légende :    VFR   VFR Marginal   IFR   IFR Intensif   IFR Très Intensif
Visi : 
Plafond : 
>= 8 km
>= 3000ft
5 à 8 km
1000 à 3000 ft
1500m à 5 km
500 à 1000 ft
800 à 1500m
200 à 500 ft
< 800m
< 200 ft
Symboles :   Orages  Brouillard  Fortes neiges  Fortes précipitations  Vent > 20 kt
SIGMETs :   Divers  Orages  Givrage  Turbulence  Onde Orograph.  Cendres Volcan.






- Altitude de l'aérodrome : 489 ft
- Code IATA : GDN


EPGD - Gdansk

DERNIER METAR :
  • 290300Z 25010KT CAVOK M07/M09 Q1002

METARs EXPIRÉS :
  • 290230Z 25010KT CAVOK M06/M08 Q1002
  • 290200Z 24008KT CAVOK M07/M08 Q1002
  • 290130Z 24007KT CAVOK M07/M08 Q1002
  • 290100Z 23006KT CAVOK M07/M08 Q1002
  • 290030Z 24006KT 9999 FEW038 M07/M08 Q1001
  • 290000Z 22004KT 170V250 9999 FEW040 M07/M08 Q1001
  • 282330Z 22005KT CAVOK M07/M09 Q1001
  • 282300Z 24004KT CAVOK M07/M08 Q1001
  • 282230Z 23005KT CAVOK M06/M08 Q1001

TAF TAF EPGD
Valide du 29 à 00h jusqu'au 30 à 00h UTC


282330Z 2900/2924 24006KT CAVOK
PROB40
TEMPO 2900/2906 3000 -SHSN BR BKN008 BKN012CB
BECMG 2918/2920 BKN014
TEMPO 2920/2924 -SN BKN008



MET'MAP, la Météo Aéronautique d'un coup d'oeil ! - Copyright ORBIFLY Décembre 2007 - Disclaimer

ORBIFLY MET'MAP TEAM :

Programmation & Développement : Alexandra Zaïnal
Sur une idée originale de : Baudouin d'Aumeries
Soutien technique & logistique : Manuel Goepfert
Assistance : Marc-Olivier Méhu




SOURCES & CREDITS :

   NOAA